24h
KLIENDITUGI:
Saartelennuliinid: +372 58856336 (24/7)
Estairi piletikassa lennujaamas:
+372 6058887; +372 55603687

31.01.2019 õhtune Transaviabaltika lend KTB676 Tallinn - Kärdla ja KTB677 Kärdla – Tallinn väljalend jääb ära. Lennu ära jäämise põhjustab ilmastikuolud Kärdla Lennuväljal. Reisijatele võimaldatakse tasuta lennupileti ümber broneerimine reisija soovi kohasele mõnele teisele Tallinn-Kärdla või Kärdla-Tallinn lennule. Reisijatele kes ei soovi lennupileti ümberbroneerimist teisele lennule tagastatakse piletiraha. Oma soovist tuleb teada anda e-mailile [email protected] Lisainformatsioon telefonil 58856336

EEKA Kärdla lennuväli FCEO32 EETN 311300

TAF EEKA 311300Z 3114/3120 VRB02KT 6000 BKN003 OVC010

TEMPO 3115/3120 0800 FZFG VV002=

METAR EEKA 311350Z 12006KT 3000 -SN BR OVC002 M04/M04 Q1013=
Kuupäev: 
31/01/2019